Overbrook, Kansas
Current Conditions -  °F | °C
As of 5:53 AM on Sunday 23 Nov 2014 (Local Time) from KFOE Reporting Station
Haze Haze  
Wind Chill: 55°   Ceiling: 300
Heat Index: 55°   Visibility: 4mi
Dew Point: 53°   Wind: 13mph
Humidity: 93%   Direction: 160°SSE
Pressure: 29.51"   Gusts: NA
Location:  38.78°N, 95.56°W
Report Text: KFOE 231153Z 16011KT 4SM BR OVC003 13/12 A2951 RMK AO2 SLP989 T01280117 10139 20122 56022
Loading
Personal Weather Stations






























Interactive Weather Map New forecast layout! Learn more

10-Day Weather Forecast

Advertisements
Track Severe Weather on mobile